createdAt,value
2017-06-15T00:00:57.240Z,1015.52
2017-06-15T00:02:07.510Z,1015.52
2017-06-15T00:03:17.456Z,1015.5
2017-06-15T00:04:27.403Z,1015.52
2017-06-15T00:05:37.360Z,1015.51
2017-06-15T00:06:47.314Z,1015.5
2017-06-15T00:07:56.639Z,1015.53
2017-06-15T00:09:06.589Z,1015.49
2017-06-15T00:10:16.540Z,1015.52
2017-06-15T00:11:26.804Z,1015.49
2017-06-15T00:12:37.072Z,1015.54
2017-06-15T00:13:47.014Z,1015.48
2017-06-15T00:14:57.310Z,1015.53
2017-06-15T00:16:06.993Z,1015.51
2017-06-15T00:17:17.257Z,1015.54
2017-06-15T00:18:26.892Z,1015.53
2017-06-15T00:19:37.159Z,1015.55
2017-06-15T00:20:47.113Z,1015.54
2017-06-15T00:21:57.065Z,1015.52
2017-06-15T00:23:07.331Z,1015.5
2017-06-15T00:24:17.600Z,1015.49
2017-06-15T00:25:27.565Z,1015.46
2017-06-15T00:26:37.194Z,1015.46
2017-06-15T00:27:47.457Z,1015.47
2017-06-15T00:28:57.722Z,1015.46
2017-06-15T00:30:07.674Z,1015.44
2017-06-15T00:31:17.623Z,1015.41
2017-06-15T00:32:27.884Z,1015.43
2017-06-15T00:33:37.836Z,1015.43
2017-06-15T00:34:47.791Z,1015.43
2017-06-15T00:35:58.055Z,1015.45
2017-06-15T00:37:08.323Z,1015.47
2017-06-15T00:38:17.649Z,1015.49
2017-06-15T00:39:27.922Z,1015.48
2017-06-15T00:40:37.552Z,1015.49
2017-06-15T00:41:47.819Z,1015.5
2017-06-15T00:42:58.085Z,1015.53
2017-06-15T00:44:08.349Z,1015.52
2017-06-15T00:45:18.613Z,1015.54
2017-06-15T00:46:28.874Z,1015.5
2017-06-15T00:47:39.136Z,1015.49
2017-06-15T00:48:49.399Z,1015.49
2017-06-15T00:49:59.352Z,1015.45
2017-06-15T00:51:09.621Z,1015.45
2017-06-15T00:52:19.885Z,1015.45
2017-06-15T00:53:30.155Z,1015.43
2017-06-15T00:54:40.425Z,1015.41
2017-06-15T00:55:50.697Z,1015.39
2017-06-15T00:57:00.966Z,1015.38
2017-06-15T00:58:10.291Z,1015.34
2017-06-15T00:59:20.549Z,1015.33
2017-06-15T01:00:30.820Z,1015.36
2017-06-15T01:01:41.084Z,1015.34
2017-06-15T01:02:51.035Z,1015.37
2017-06-15T01:04:00.989Z,1015.37
2017-06-15T01:05:11.255Z,1015.39
2017-06-15T01:06:21.210Z,1015.43
2017-06-15T01:07:31.471Z,1015.41
2017-06-15T01:08:41.102Z,1015.4
2017-06-15T01:09:51.370Z,1015.41
2017-06-15T01:11:01.668Z,1015.37
2017-06-15T01:12:11.611Z,1015.36
2017-06-15T01:13:21.872Z,1015.38
2017-06-15T01:14:32.137Z,1015.39
2017-06-15T01:15:42.400Z,1015.39
2017-06-15T01:16:52.344Z,1015.39
2017-06-15T01:18:02.294Z,1015.36
2017-06-15T01:19:12.594Z,1015.33
2017-06-15T01:20:22.544Z,1015.32
2017-06-15T01:21:32.493Z,1015.31
2017-06-15T01:22:42.437Z,1015.29
2017-06-15T01:23:52.384Z,1015.29
2017-06-15T01:25:02.644Z,1015.26
2017-06-15T01:26:12.591Z,1015.25
2017-06-15T01:27:22.537Z,1015.28
2017-06-15T01:28:31.866Z,1015.27
2017-06-15T01:29:41.503Z,1015.26
2017-06-15T01:30:51.769Z,1015.25
2017-06-15T01:32:01.402Z,1015.26
2017-06-15T01:33:11.033Z,1015.3
2017-06-15T01:34:21.298Z,1015.3
2017-06-15T01:35:31.243Z,1015.3
2017-06-15T01:36:41.512Z,1015.31
2017-06-15T01:37:51.777Z,1015.3
2017-06-15T01:39:01.731Z,1015.35
2017-06-15T01:40:11.068Z,1015.33
2017-06-15T01:41:21.020Z,1015.33
2017-06-15T01:42:30.966Z,1015.35
2017-06-15T01:43:40.916Z,1015.34
2017-06-15T01:44:51.180Z,1015.36
2017-06-15T01:46:01.438Z,1015.35
2017-06-15T01:47:11.702Z,1015.34
2017-06-15T01:48:20.713Z,1015.36
2017-06-15T01:49:30.667Z,1015.32
2017-06-15T01:50:40.930Z,1015.37
2017-06-15T01:51:51.195Z,1015.35
2017-06-15T01:53:01.165Z,1015.35
2017-06-15T01:54:11.122Z,1015.3
2017-06-15T01:55:20.764Z,1015.3
2017-06-15T01:56:31.050Z,1015.34
2017-06-15T01:57:40.683Z,1015.32
2017-06-15T01:58:50.637Z,1015.35
2017-06-15T02:00:00.584Z,1015.33
2017-06-15T02:01:10.572Z,1015.35
2017-06-15T02:02:20.522Z,1015.37
2017-06-15T02:03:30.785Z,1015.34
2017-06-15T02:04:40.457Z,1015.41
2017-06-15T02:05:50.727Z,1015.43
2017-06-15T02:07:00.993Z,1015.42
2017-06-15T02:08:10.977Z,1015.44
2017-06-15T02:09:20.299Z,1015.44
2017-06-15T02:10:30.247Z,1015.43
2017-06-15T02:11:40.206Z,1015.41
2017-06-15T02:12:50.179Z,1015.45
2017-06-15T02:14:00.133Z,1015.45
2017-06-15T02:15:10.397Z,1015.46
2017-06-15T02:16:20.663Z,1015.48
2017-06-15T02:17:30.617Z,1015.5
2017-06-15T02:18:40.881Z,1015.48
2017-06-15T02:19:50.837Z,1015.48
2017-06-15T02:21:00.479Z,1015.47
2017-06-15T02:22:10.430Z,1015.48
2017-06-15T02:23:20.074Z,1015.43
2017-06-15T02:24:30.338Z,1015.43
2017-06-15T02:25:40.605Z,1015.41
2017-06-15T02:26:50.235Z,1015.36
2017-06-15T02:28:00.184Z,1015.38
2017-06-15T02:29:10.134Z,1015.39
2017-06-15T02:30:19.768Z,1015.38
2017-06-15T02:31:29.722Z,1015.41
2017-06-15T02:32:39.989Z,1015.4
2017-06-15T02:33:49.935Z,1015.44
2017-06-15T02:34:59.908Z,1015.4
2017-06-15T02:36:10.175Z,1015.43
2017-06-15T02:37:20.448Z,1015.43
2017-06-15T02:38:30.711Z,1015.4
2017-06-15T02:39:40.341Z,1015.41
2017-06-15T02:40:50.605Z,1015.41
2017-06-15T02:42:00.544Z,1015.39
2017-06-15T02:43:09.863Z,1015.42
2017-06-15T02:44:19.812Z,1015.43
2017-06-15T02:45:29.758Z,1015.42
2017-06-15T02:46:40.026Z,1015.45
2017-06-15T02:47:50.298Z,1015.46
2017-06-15T02:49:00.554Z,1015.48
2017-06-15T02:50:10.505Z,1015.47
2017-06-15T02:51:20.460Z,1015.46
2017-06-15T02:52:30.742Z,1015.51
2017-06-15T02:53:41.003Z,1015.48
2017-06-15T02:54:50.644Z,1015.51
2017-06-15T02:56:00.621Z,1015.5
2017-06-15T02:57:10.572Z,1015.51
2017-06-15T02:58:20.833Z,1015.5
2017-06-15T02:59:31.097Z,1015.52
2017-06-15T03:00:41.363Z,1015.52
2017-06-15T03:01:51.317Z,1015.49
2017-06-15T03:03:01.623Z,1015.52
2017-06-15T03:04:11.881Z,1015.49
2017-06-15T03:05:22.152Z,1015.53
2017-06-15T03:06:32.412Z,1015.5
2017-06-15T03:07:42.365Z,1015.52
2017-06-15T03:08:52.358Z,1015.54
2017-06-15T03:10:02.629Z,1015.55
2017-06-15T03:11:12.894Z,1015.57
2017-06-15T03:12:23.180Z,1015.55
2017-06-15T03:13:33.175Z,1015.55
2017-06-15T03:14:43.440Z,1015.55
2017-06-15T03:15:53.387Z,1015.54
2017-06-15T03:17:03.024Z,1015.52
2017-06-15T03:18:12.969Z,1015.53
2017-06-15T03:19:22.607Z,1015.53
2017-06-15T03:20:32.560Z,1015.52
2017-06-15T03:21:42.823Z,1015.54
2017-06-15T03:22:52.773Z,1015.52
2017-06-15T03:24:02.727Z,1015.56
2017-06-15T03:25:12.369Z,1015.5
2017-06-15T03:26:22.322Z,1015.54
2017-06-15T03:27:32.265Z,1015.53
2017-06-15T03:28:42.214Z,1015.56
2017-06-15T03:29:51.854Z,1015.57
2017-06-15T03:31:01.802Z,1015.6
2017-06-15T03:32:12.065Z,1015.61
2017-06-15T03:33:22.028Z,1015.61
2017-06-15T03:34:31.665Z,1015.57
2017-06-15T03:35:41.617Z,1015.59
2017-06-15T03:36:51.563Z,1015.59
2017-06-15T03:38:01.517Z,1015.6
2017-06-15T03:39:11.779Z,1015.58
2017-06-15T03:40:22.066Z,1015.55
2017-06-15T03:41:32.337Z,1015.59
2017-06-15T03:42:41.970Z,1015.61
2017-06-15T03:43:52.246Z,1015.57
2017-06-15T03:45:02.511Z,1015.51
2017-06-15T03:46:12.456Z,1015.5
2017-06-15T03:47:22.406Z,1015.48
2017-06-15T03:48:32.667Z,1015.5
2017-06-15T03:49:42.616Z,1015.52
2017-06-15T03:50:52.881Z,1015.47
2017-06-15T03:52:02.826Z,1015.47
2017-06-15T03:53:12.779Z,1015.44
2017-06-15T03:54:23.044Z,1015.4
2017-06-15T03:55:33.305Z,1015.44
2017-06-15T03:56:43.566Z,1015.36
2017-06-15T03:57:53.518Z,1015.36
2017-06-15T03:59:03.157Z,1015.37
2017-06-15T04:00:13.107Z,1015.37
2017-06-15T04:01:23.370Z,1015.36
2017-06-15T04:02:33.648Z,1015.33
2017-06-15T04:03:43.595Z,1015.34
2017-06-15T04:04:53.557Z,1015.34
2017-06-15T04:06:03.511Z,1015.39
2017-06-15T04:07:13.465Z,1015.39
2017-06-15T04:08:23.102Z,1015.35
2017-06-15T04:09:33.371Z,1015.36
2017-06-15T04:10:43.632Z,1015.37
2017-06-15T04:11:53.891Z,1015.39
2017-06-15T04:13:03.530Z,1015.37
2017-06-15T04:14:13.793Z,1015.41
2017-06-15T04:15:24.058Z,1015.42
2017-06-15T04:16:34.317Z,1015.4
2017-06-15T04:17:43.956Z,1015.41
2017-06-15T04:18:54.225Z,1015.44
2017-06-15T04:20:04.172Z,1015.41
2017-06-15T04:21:14.439Z,1015.44
2017-06-15T04:22:24.076Z,1015.43
2017-06-15T04:23:34.334Z,1015.44
2017-06-15T04:24:43.963Z,1015.44
2017-06-15T04:25:53.916Z,1015.41
2017-06-15T04:27:03.864Z,1015.43
2017-06-15T04:28:14.130Z,1015.43
2017-06-15T04:29:23.768Z,1015.47
2017-06-15T04:30:33.411Z,1015.43
2017-06-15T04:31:43.682Z,1015.44
2017-06-15T04:32:53.952Z,1015.45
2017-06-15T04:34:03.909Z,1015.4
2017-06-15T04:35:14.175Z,1015.41
2017-06-15T04:36:24.439Z,1015.44
2017-06-15T04:37:34.395Z,1015.48
2017-06-15T04:38:44.665Z,1015.5
2017-06-15T04:39:54.619Z,1015.5
2017-06-15T04:41:04.568Z,1015.54
2017-06-15T04:42:14.835Z,1015.49
2017-06-15T04:43:25.105Z,1015.52
2017-06-15T04:44:35.366Z,1015.46
2017-06-15T04:45:45.311Z,1015.5
2017-06-15T04:46:55.261Z,1015.49
2017-06-15T04:48:05.207Z,1015.47
2017-06-15T04:49:15.479Z,1015.5
2017-06-15T04:50:25.758Z,1015.48
2017-06-15T04:51:35.706Z,1015.51
2017-06-15T04:52:45.660Z,1015.5
2017-06-15T04:53:55.925Z,1015.5
2017-06-15T04:55:05.571Z,1015.53
2017-06-15T04:56:15.839Z,1015.52
2017-06-15T04:57:26.109Z,1015.56
2017-06-15T04:58:36.066Z,1015.55
2017-06-15T04:59:46.015Z,1015.52
2017-06-15T05:00:55.654Z,1015.52
2017-06-15T05:02:05.916Z,1015.51
2017-06-15T05:03:15.547Z,1015.52
2017-06-15T05:04:25.494Z,1015.5
2017-06-15T05:05:35.447Z,1015.5
2017-06-15T05:06:45.419Z,1015.47
2017-06-15T05:07:55.724Z,1015.47
2017-06-15T05:09:05.678Z,1015.43
2017-06-15T05:10:15.948Z,1015.45
2017-06-15T05:11:25.579Z,1015.46
2017-06-15T05:12:35.521Z,1015.43
2017-06-15T05:13:45.789Z,1015.43
2017-06-15T05:14:55.742Z,1015.45
2017-06-15T05:16:05.377Z,1015.45
2017-06-15T05:17:15.645Z,1015.4
2017-06-15T05:18:25.907Z,1015.4
2017-06-15T05:19:35.871Z,1015.39
2017-06-15T05:20:45.192Z,1015.36
2017-06-15T05:21:55.145Z,1015.32
2017-06-15T05:23:04.782Z,1015.35
2017-06-15T05:24:15.051Z,1015.32
2017-06-15T05:25:25.010Z,1015.34
2017-06-15T05:26:35.275Z,1015.36
2017-06-15T05:27:44.603Z,1015.34
2017-06-15T05:28:54.546Z,1015.32
2017-06-15T05:30:04.499Z,1015.33
2017-06-15T05:31:14.767Z,1015.36
2017-06-15T05:32:24.718Z,1015.32
2017-06-15T05:33:34.354Z,1015.31
2017-06-15T05:34:44.617Z,1015.3
2017-06-15T05:35:54.882Z,1015.33
2017-06-15T05:37:04.519Z,1015.32
2017-06-15T05:38:14.785Z,1015.32
2017-06-15T05:39:25.049Z,1015.29
2017-06-15T05:40:35.358Z,1015.33
2017-06-15T05:41:45.613Z,1015.31
2017-06-15T05:42:55.249Z,1015.34
2017-06-15T05:44:05.523Z,1015.35
2017-06-15T05:45:15.788Z,1015.39
2017-06-15T05:46:25.737Z,1015.35
2017-06-15T05:47:36.000Z,1015.35
2017-06-15T05:48:45.634Z,1015.33
2017-06-15T05:49:55.896Z,1015.38
2017-06-15T05:51:05.841Z,1015.37
2017-06-15T05:52:15.791Z,1015.4
2017-06-15T05:53:26.058Z,1015.36
2017-06-15T05:54:36.321Z,1015.39
2017-06-15T05:55:46.588Z,1015.41
2017-06-15T05:56:56.228Z,1015.38
2017-06-15T05:58:06.180Z,1015.4
2017-06-15T05:59:15.819Z,1015.41
2017-06-15T06:00:26.075Z,1015.4
2017-06-15T06:01:36.341Z,1015.35
2017-06-15T06:02:46.285Z,1015.39
2017-06-15T06:03:56.549Z,1015.38
2017-06-15T06:05:06.495Z,1015.4
2017-06-15T06:06:16.446Z,1015.4
2017-06-15T06:07:26.713Z,1015.41
2017-06-15T06:08:36.350Z,1015.39
2017-06-15T06:09:45.986Z,1015.4
2017-06-15T06:10:55.934Z,1015.4
2017-06-15T06:12:05.567Z,1015.37
2017-06-15T06:13:15.511Z,1015.36
2017-06-15T06:14:25.145Z,1015.36
2017-06-15T06:15:35.100Z,1015.32
2017-06-15T06:16:45.371Z,1015.35
2017-06-15T06:17:55.318Z,1015.36
2017-06-15T06:19:05.586Z,1015.35
2017-06-15T06:20:15.535Z,1015.28
2017-06-15T06:21:24.857Z,1015.28
2017-06-15T06:22:35.121Z,1015.28
2017-06-15T06:23:45.390Z,1015.26
2017-06-15T06:24:55.657Z,1015.26
2017-06-15T06:26:05.600Z,1015.26
2017-06-15T06:27:15.548Z,1015.26
2017-06-15T06:28:25.493Z,1015.24
2017-06-15T06:29:35.775Z,1015.26
2017-06-15T06:30:45.418Z,1015.25
2017-06-15T06:31:55.684Z,1015.24
2017-06-15T06:33:05.329Z,1015.25
2017-06-15T06:34:15.281Z,1015.25
2017-06-15T06:35:25.232Z,1015.23
2017-06-15T06:36:35.493Z,1015.21
2017-06-15T06:37:45.765Z,1015.24
2017-06-15T06:38:55.715Z,1015.23
2017-06-15T06:40:05.982Z,1015.23
2017-06-15T06:41:15.616Z,1015.23
2017-06-15T06:42:25.880Z,1015.29
2017-06-15T06:43:35.835Z,1015.23
2017-06-15T06:44:46.101Z,1015.24
2017-06-15T06:45:56.056Z,1015.25
2017-06-15T06:47:06.322Z,1015.24
2017-06-15T06:48:16.590Z,1015.24
2017-06-15T06:49:26.534Z,1015.28
2017-06-15T06:50:36.799Z,1015.28
2017-06-15T06:51:47.068Z,1015.28
2017-06-15T06:52:57.017Z,1015.24
2017-06-15T06:54:06.653Z,1015.21
2017-06-15T06:55:16.607Z,1015.21
2017-06-15T06:56:26.866Z,1015.21
2017-06-15T06:57:36.501Z,1015.21
2017-06-15T06:58:46.774Z,1015.22
2017-06-15T06:59:56.725Z,1015.23
2017-06-15T07:01:06.679Z,1015.26
2017-06-15T07:02:16.632Z,1015.24
2017-06-15T07:03:26.264Z,1015.23
2017-06-15T07:04:36.524Z,1015.21
2017-06-15T07:05:46.796Z,1015.23
2017-06-15T07:06:56.750Z,1015.24
2017-06-15T07:08:06.388Z,1015.25
2017-06-15T07:09:16.341Z,1015.25
2017-06-15T07:10:26.290Z,1015.26
2017-06-15T07:11:36.553Z,1015.24
2017-06-15T07:12:46.500Z,1015.27
2017-06-15T07:13:56.786Z,1015.22
2017-06-15T07:15:06.737Z,1015.21
2017-06-15T07:16:17.017Z,1015.21
2017-06-15T07:17:27.285Z,1015.22
2017-06-15T07:18:37.547Z,1015.15
2017-06-15T07:19:47.818Z,1015.15
2017-06-15T07:20:57.768Z,1015.17
2017-06-15T07:22:07.719Z,1015.15
2017-06-15T07:23:17.988Z,1015.13
2017-06-15T07:24:27.950Z,1015.09
2017-06-15T07:25:37.900Z,1015.13
2017-06-15T07:26:47.222Z,1015.13
2017-06-15T07:27:57.492Z,1015.15
2017-06-15T07:29:07.126Z,1015.11
2017-06-15T07:30:17.393Z,1015.12
2017-06-15T07:31:27.338Z,1015.05
2017-06-15T07:32:36.664Z,1015.11
2017-06-15T07:33:46.930Z,1015.1
2017-06-15T07:34:57.194Z,1015.1
2017-06-15T07:36:07.148Z,1015.18
2017-06-15T07:37:17.095Z,1015.16
2017-06-15T07:38:27.050Z,1015.18
2017-06-15T07:39:36.370Z,1015.18
2017-06-15T07:40:46.315Z,1015.19
2017-06-15T07:41:56.273Z,1015.18
2017-06-15T07:43:05.593Z,1015.15
2017-06-15T07:44:15.549Z,1015.12
2017-06-15T07:45:25.812Z,1015.15
2017-06-15T07:46:36.082Z,1015.18
2017-06-15T07:47:45.718Z,1015.16
2017-06-15T07:48:55.977Z,1015.15
2017-06-15T07:50:05.617Z,1015.18
2017-06-15T07:51:15.564Z,1015.19
2017-06-15T07:52:25.200Z,1015.15
2017-06-15T07:53:34.835Z,1015.18
2017-06-15T07:54:44.467Z,1015.15
2017-06-15T07:55:54.418Z,1015.17
2017-06-15T07:57:04.684Z,1015.14
2017-06-15T07:58:14.637Z,1015.18
2017-06-15T07:59:24.904Z,1015.15
2017-06-15T08:00:35.173Z,1015.17
2017-06-15T08:01:44.545Z,1015.19
2017-06-15T08:02:54.820Z,1015.19
2017-06-15T08:04:05.090Z,1015.2
2017-06-15T08:05:14.733Z,1015.19
2017-06-15T08:06:24.683Z,1015.22
2017-06-15T08:07:34.952Z,1015.19
2017-06-15T08:08:45.213Z,1015.19
2017-06-15T08:09:55.160Z,1015.21
2017-06-15T08:11:05.425Z,1015.19
2017-06-15T08:12:15.372Z,1015.21
2017-06-15T08:13:25.325Z,1015.21
2017-06-15T08:14:34.964Z,1015.18
2017-06-15T08:15:44.909Z,1015.19
2017-06-15T08:16:55.177Z,1015.16
2017-06-15T08:18:05.132Z,1015.11
2017-06-15T08:19:15.082Z,1015.07
2017-06-15T08:20:24.412Z,1015.15
2017-06-15T08:21:34.360Z,1015.11
2017-06-15T08:22:44.630Z,1015.09
2017-06-15T08:23:54.897Z,1015.17
2017-06-15T08:25:05.167Z,1015.11
2017-06-15T08:26:15.121Z,1015.05
2017-06-15T08:27:25.399Z,1015.07
2017-06-15T08:28:35.665Z,1015.01
2017-06-15T08:29:45.932Z,1014.99
2017-06-15T08:30:55.252Z,1015
2017-06-15T08:32:05.523Z,1015.05
2017-06-15T08:33:15.794Z,1015.06
2017-06-15T08:34:25.748Z,1015.06
2017-06-15T08:35:35.705Z,1015.01
2017-06-15T08:36:45.972Z,1015.03
2017-06-15T08:37:56.235Z,1015.06
2017-06-15T08:39:05.871Z,1015.11
2017-06-15T08:40:16.130Z,1015.02
2017-06-15T08:41:26.394Z,1015.07
2017-06-15T08:42:36.657Z,1015.06
2017-06-15T08:43:46.919Z,1015.02
2017-06-15T08:44:56.886Z,1015.05
2017-06-15T08:46:07.156Z,1015.05
2017-06-15T08:47:17.421Z,1015
2017-06-15T08:48:27.371Z,1014.96
2017-06-15T08:49:37.324Z,1015
2017-06-15T08:50:47.274Z,1014.99
2017-06-15T08:51:57.237Z,1014.99
2017-06-15T08:53:07.502Z,1014.97
2017-06-15T08:54:17.763Z,1014.98
2017-06-15T08:55:28.024Z,1014.98
2017-06-15T08:56:37.655Z,1014.95
2017-06-15T08:57:47.606Z,1015
2017-06-15T08:58:57.579Z,1014.96
2017-06-15T09:00:07.844Z,1014.98
2017-06-15T09:01:18.111Z,1014.95
2017-06-15T09:02:27.776Z,1014.97
2017-06-15T09:03:38.052Z,1015
2017-06-15T09:04:48.002Z,1014.96
2017-06-15T09:05:58.268Z,1014.92
2017-06-15T09:07:08.223Z,1014.88
2017-06-15T09:08:18.177Z,1014.9
2017-06-15T09:09:28.439Z,1014.89
2017-06-15T09:10:38.710Z,1014.86
2017-06-15T09:11:48.663Z,1014.86
2017-06-15T09:12:58.615Z,1014.89
2017-06-15T09:14:08.564Z,1014.89
2017-06-15T09:15:18.841Z,1014.79
2017-06-15T09:16:28.787Z,1014.83
2017-06-15T09:17:38.755Z,1014.79
2017-06-15T09:18:48.715Z,1014.78
2017-06-15T09:19:58.349Z,1014.81
2017-06-15T09:21:08.304Z,1014.8
2017-06-15T09:22:18.567Z,1014.75
2017-06-15T09:23:28.835Z,1014.71
2017-06-15T09:24:39.108Z,1014.73
2017-06-15T09:25:49.373Z,1014.75
2017-06-15T09:26:59.008Z,1014.72
2017-06-15T09:28:08.650Z,1014.69
2017-06-15T09:29:18.918Z,1014.7
2017-06-15T09:30:29.183Z,1014.71
2017-06-15T09:31:39.448Z,1014.7
2017-06-15T09:32:49.422Z,1014.66
2017-06-15T09:33:59.690Z,1014.67
2017-06-15T09:35:09.343Z,1014.62
2017-06-15T09:36:19.294Z,1014.65
2017-06-15T09:37:29.560Z,1014.56
2017-06-15T09:38:39.512Z,1014.52
2017-06-15T09:39:49.463Z,1014.57
2017-06-15T09:40:59.727Z,1014.57
2017-06-15T09:42:09.999Z,1014.54
2017-06-15T09:43:20.263Z,1014.5
2017-06-15T09:44:30.533Z,1014.47
2017-06-15T09:45:40.487Z,1014.49
2017-06-15T09:46:50.441Z,1014.53
2017-06-15T09:48:00.398Z,1014.53
2017-06-15T09:49:10.346Z,1014.55
2017-06-15T09:50:20.622Z,1014.52
2017-06-15T09:51:30.575Z,1014.48
2017-06-15T09:52:40.844Z,1014.49
2017-06-15T09:53:50.797Z,1014.52
2017-06-15T09:55:01.062Z,1014.51
2017-06-15T09:56:11.323Z,1014.51
2017-06-15T09:57:21.587Z,1014.46
2017-06-15T09:58:31.221Z,1014.44
2017-06-15T09:59:41.484Z,1014.46
2017-06-15T10:00:51.757Z,1014.41
2017-06-15T10:02:02.025Z,1014.41
2017-06-15T10:03:11.976Z,1014.39
2017-06-15T10:04:22.243Z,1014.36
2017-06-15T10:05:32.503Z,1014.34
2017-06-15T10:06:42.767Z,1014.33
2017-06-15T10:07:52.730Z,1014.35
2017-06-15T10:09:02.992Z,1014.34
2017-06-15T10:10:12.627Z,1014.3
2017-06-15T10:11:22.896Z,1014.3
2017-06-15T10:12:33.163Z,1014.35
2017-06-15T10:13:43.119Z,1014.35
2017-06-15T10:14:53.067Z,1014.33
2017-06-15T10:16:03.332Z,1014.35
2017-06-15T10:17:13.280Z,1014.31
2017-06-15T10:18:22.929Z,1014.33
2017-06-15T10:19:33.199Z,1014.27
2017-06-15T10:20:43.158Z,1014.27
2017-06-15T10:21:53.101Z,1014.22
2017-06-15T10:23:03.370Z,1014.21
2017-06-15T10:24:13.319Z,1014.24
2017-06-15T10:25:23.582Z,1014.26
2017-06-15T10:26:33.544Z,1014.22
2017-06-15T10:27:43.805Z,1014.22
2017-06-15T10:28:53.754Z,1014.22
2017-06-15T10:30:04.018Z,1014.23
2017-06-15T10:31:13.656Z,1014.16
2017-06-15T10:32:23.919Z,1014.1
2017-06-15T10:33:33.241Z,1014.11
2017-06-15T10:34:43.508Z,1014.14
2017-06-15T10:35:53.774Z,1014.15
2017-06-15T10:37:03.723Z,1014.13
2017-06-15T10:38:13.359Z,1014.13
2017-06-15T10:39:23.315Z,1014.15
2017-06-15T10:40:33.581Z,1014.06
2017-06-15T10:41:43.851Z,1014.09
2017-06-15T10:42:53.808Z,1014.03
2017-06-15T10:44:04.078Z,1014.08
2017-06-15T10:45:14.348Z,1014.08
2017-06-15T10:46:24.607Z,1014.06
2017-06-15T10:47:34.871Z,1014.13
2017-06-15T10:48:45.136Z,1014.07
2017-06-15T10:49:54.772Z,1014.04
2017-06-15T10:51:04.407Z,1014.03
2017-06-15T10:52:14.354Z,1014
2017-06-15T10:53:24.299Z,1013.98
2017-06-15T10:54:34.247Z,1013.99
2017-06-15T10:55:44.516Z,1013.98
2017-06-15T10:56:54.782Z,1013.98
2017-06-15T10:58:04.734Z,1013.98
2017-06-15T10:59:14.684Z,1013.95
2017-06-15T11:00:24.632Z,1013.92
2017-06-15T11:01:34.899Z,1013.94
2017-06-15T11:02:44.849Z,1013.91
2017-06-15T11:03:55.112Z,1013.88
2017-06-15T11:05:05.063Z,1013.95
2017-06-15T11:06:14.697Z,1013.9
2017-06-15T11:07:24.331Z,1013.86
2017-06-15T11:08:34.288Z,1013.87
2017-06-15T11:09:43.617Z,1013.87
2017-06-15T11:10:53.883Z,1013.81
2017-06-15T11:12:03.834Z,1013.84
2017-06-15T11:13:14.097Z,1013.78
2017-06-15T11:14:24.370Z,1013.78
2017-06-15T11:15:34.648Z,1013.84
2017-06-15T11:16:44.919Z,1013.77
2017-06-15T11:17:55.181Z,1013.77
2017-06-15T11:19:04.822Z,1013.72
2017-06-15T11:20:14.460Z,1013.71
2017-06-15T11:21:24.411Z,1013.74
2017-06-15T11:22:34.042Z,1013.71
2017-06-15T11:23:44.322Z,1013.65
2017-06-15T11:24:53.953Z,1013.66
2017-06-15T11:26:03.898Z,1013.66
2017-06-15T11:27:13.853Z,1013.61
2017-06-15T11:28:23.806Z,1013.6
2017-06-15T11:29:33.751Z,1013.59
2017-06-15T11:30:44.016Z,1013.57
2017-06-15T11:31:53.653Z,1013.52
2017-06-15T11:33:03.920Z,1013.52
2017-06-15T11:34:14.195Z,1013.44
2017-06-15T11:35:24.203Z,1013.44
2017-06-15T11:36:33.524Z,1013.52
2017-06-15T11:37:43.783Z,1013.5
2017-06-15T11:38:53.420Z,1013.5
2017-06-15T11:40:03.686Z,1013.51
2017-06-15T11:41:13.322Z,1013.49
2017-06-15T11:42:23.584Z,1013.54
2017-06-15T11:43:33.852Z,1013.57
2017-06-15T11:44:44.119Z,1013.53
2017-06-15T11:45:54.065Z,1013.57
2017-06-15T11:47:04.325Z,1013.53
2017-06-15T11:48:14.592Z,1013.52
2017-06-15T11:49:24.856Z,1013.48
2017-06-15T11:50:34.806Z,1013.47
2017-06-15T11:51:44.755Z,1013.49
2017-06-15T11:52:54.074Z,1013.48
2017-06-15T11:54:04.343Z,1013.45
2017-06-15T11:55:14.617Z,1013.43
2017-06-15T11:56:24.577Z,1013.37
2017-06-15T11:57:34.834Z,1013.35
2017-06-15T11:58:44.785Z,1013.33
2017-06-15T11:59:54.419Z,1013.31
2017-06-15T12:01:04.060Z,1013.28
2017-06-15T12:02:14.323Z,1013.28
2017-06-15T12:03:24.277Z,1013.28
2017-06-15T12:04:34.582Z,1013.26
2017-06-15T12:05:44.540Z,1013.27
2017-06-15T12:06:53.853Z,1013.29
2017-06-15T12:08:03.798Z,1013.25
2017-06-15T12:09:13.436Z,1013.25
2017-06-15T12:10:23.695Z,1013.27
2017-06-15T12:11:33.647Z,1013.24
2017-06-15T12:12:43.600Z,1013.22
2017-06-15T12:13:53.871Z,1013.19
2017-06-15T12:15:03.504Z,1013.2
2017-06-15T12:16:13.453Z,1013.22
2017-06-15T12:17:23.717Z,1013.19
2017-06-15T12:18:33.978Z,1013.16
2017-06-15T12:19:43.614Z,1013.15
2017-06-15T12:20:53.877Z,1013.15
2017-06-15T12:22:04.136Z,1013.13
2017-06-15T12:23:14.409Z,1013.12
2017-06-15T12:24:24.369Z,1013.08
2017-06-15T12:25:34.631Z,1013.07
2017-06-15T12:26:44.894Z,1013.06
2017-06-15T12:27:54.846Z,1013.03
2017-06-15T12:29:05.109Z,1013.04
2017-06-15T12:30:15.057Z,1012.94
2017-06-15T12:31:24.694Z,1012.95
2017-06-15T12:32:34.957Z,1012.94
2017-06-15T12:33:45.281Z,1012.91
2017-06-15T12:34:55.574Z,1012.88
2017-06-15T12:36:05.836Z,1012.86
2017-06-15T12:37:15.472Z,1012.86
2017-06-15T12:38:25.422Z,1012.84
2017-06-15T12:39:35.689Z,1012.81
2017-06-15T12:40:45.639Z,1012.84
2017-06-15T12:41:55.590Z,1012.77
2017-06-15T12:43:05.904Z,1012.76
2017-06-15T12:44:15.547Z,1012.73
2017-06-15T12:45:25.815Z,1012.75
2017-06-15T12:46:35.456Z,1012.74
2017-06-15T12:47:45.410Z,1012.75
2017-06-15T12:48:55.680Z,1012.77
2017-06-15T12:50:05.008Z,1012.76
2017-06-15T12:51:14.962Z,1012.7
2017-06-15T12:52:24.915Z,1012.64
2017-06-15T12:53:34.244Z,1012.64
2017-06-15T12:54:44.507Z,1012.57
2017-06-15T12:55:54.773Z,1012.58
2017-06-15T12:57:04.727Z,1012.5
2017-06-15T12:58:14.680Z,1012.54
2017-06-15T12:59:24.629Z,1012.54
2017-06-15T13:00:34.899Z,1012.56
2017-06-15T13:01:44.532Z,1012.5
2017-06-15T13:02:54.813Z,1012.47
2017-06-15T13:04:05.112Z,1012.46
2017-06-15T13:05:15.073Z,1012.45
2017-06-15T13:06:25.067Z,1012.49
2017-06-15T13:07:35.021Z,1012.45
2017-06-15T13:08:45.292Z,1012.45
2017-06-15T13:09:55.565Z,1012.45
2017-06-15T13:11:05.516Z,1012.42
2017-06-15T13:12:15.794Z,1012.45
2017-06-15T13:13:26.056Z,1012.39
2017-06-15T13:14:35.684Z,1012.37
2017-06-15T13:15:45.321Z,1012.33
2017-06-15T13:16:55.583Z,1012.33
2017-06-15T13:18:05.852Z,1012.33
2017-06-15T13:19:16.110Z,1012.35
2017-06-15T13:20:26.373Z,1012.33
2017-06-15T13:21:36.006Z,1012.3
2017-06-15T13:22:46.275Z,1012.32
2017-06-15T13:23:56.557Z,1012.29
2017-06-15T13:25:06.532Z,1012.27
2017-06-15T13:26:16.797Z,1012.29
2017-06-15T13:27:27.061Z,1012.26
2017-06-15T13:28:37.046Z,1012.25
2017-06-15T13:29:47.315Z,1012.26
2017-06-15T13:30:57.580Z,1012.19
2017-06-15T13:32:07.215Z,1012.18
2017-06-15T13:33:17.479Z,1012.17
2017-06-15T13:34:27.740Z,1012.11
2017-06-15T13:35:37.375Z,1012.13
2017-06-15T13:36:47.042Z,1012.13
2017-06-15T13:37:56.994Z,1012.12
2017-06-15T13:39:07.265Z,1012.12
2017-06-15T13:40:17.220Z,1012.05
2017-06-15T13:41:26.855Z,1012.04
2017-06-15T13:42:36.804Z,1011.97
2017-06-15T13:43:47.068Z,1011.99
2017-06-15T13:44:57.336Z,1012
2017-06-15T13:46:07.280Z,1011.93
2017-06-15T13:47:17.543Z,1011.95
2017-06-15T13:48:27.491Z,1011.94
2017-06-15T13:49:37.443Z,1011.95
2017-06-15T13:50:47.710Z,1011.92
2017-06-15T13:51:57.997Z,1011.91
2017-06-15T13:53:08.267Z,1011.89
2017-06-15T13:54:18.535Z,1011.85
2017-06-15T13:55:28.799Z,1011.86
2017-06-15T13:56:38.750Z,1011.85
2017-06-15T13:57:49.055Z,1011.82
2017-06-15T13:58:58.693Z,1011.83
2017-06-15T14:00:08.336Z,1011.87
2017-06-15T14:01:18.601Z,1011.81
2017-06-15T14:02:28.549Z,1011.82
2017-06-15T14:03:38.810Z,1011.76
2017-06-15T14:04:49.077Z,1011.71
2017-06-15T14:05:59.340Z,1011.81
2017-06-15T14:07:09.285Z,1011.74
2017-06-15T14:08:19.242Z,1011.77
2017-06-15T14:09:29.191Z,1011.66
2017-06-15T14:10:39.459Z,1011.69